Time;durP1;ratioP1;P1;durP2;ratioP2;P2;SDS_P1;SDS_P2;PMS_P1;PMS_P2;Temp;Humidity;BMP_temperature;BMP_pressure;BME280_temperature;BME280_humidity;BME280_pressure;Samples;Min_cycle;Max_cycle;Signal;HPM_P1;HPM_P2
2024/02/05 00:00:32;;;;;;;14.77;3.72;;;;;;;;;;5071721;28;20035;-80
2024/02/05 00:02:59;;;;;;;19.88;3.40;;;;;;;;;;5068015;28;20037;-80
2024/02/05 00:05:25;;;;;;;15.35;3.20;;;;;;;;;;5058870;28;20040;-80
2024/02/05 00:07:50;;;;;;;14.50;3.47;;;;;;;;;;5055263;28;20102;-80
2024/02/05 00:10:16;;;;;;;16.27;3.65;;;;;;;;;;5085969;28;20472;-80
2024/02/05 00:12:41;;;;;;;17.95;3.15;;;;;;;;;;5071017;28;20033;-80
2024/02/05 00:15:08;;;;;;;21.10;3.40;;;;;;;;;;5067816;28;20020;-80
2024/02/05 00:17:33;;;;;;;18.90;3.88;;;;;;;;;;5067590;28;20476;-80
2024/02/05 00:19:59;;;;;;;22.38;3.70;;;;;;;;;;5070714;28;20035;-80
2024/02/05 00:22:24;;;;;;;18.15;3.70;;;;;;;;;;5070660;28;20028;-80
2024/02/05 00:24:51;;;;;;;18.80;3.90;;;;;;;;;;5069830;28;20086;-80
2024/02/05 00:27:16;;;;;;;12.82;3.60;;;;;;;;;;5077169;28;20053;-80
2024/02/05 00:29:42;;;;;;;17.73;3.58;;;;;;;;;;5089643;28;20109;-80
2024/02/05 00:32:07;;;;;;;15.23;4.32;;;;;;;;;;5069583;28;20086;-80
2024/02/05 00:34:32;;;;;;;15.93;4.00;;;;;;;;;;5068291;28;20047;-80
2024/02/05 00:36:58;;;;;;;19.45;4.50;;;;;;;;;;5063819;28;20021;-80
2024/02/05 00:39:24;;;;;;;22.80;3.70;;;;;;;;;;5066868;28;20561;-80
2024/02/05 00:41:49;;;;;;;17.17;3.55;;;;;;;;;;5070360;28;20028;-80
2024/02/05 00:44:15;;;;;;;15.48;3.70;;;;;;;;;;5070917;28;20484;-80
2024/02/05 00:46:40;;;;;;;14.63;3.35;;;;;;;;;;5064974;28;20444;-80
2024/02/05 00:49:06;;;;;;;19.90;3.88;;;;;;;;;;5065948;28;20032;-80
2024/02/05 00:51:32;;;;;;;16.20;3.67;;;;;;;;;;5066600;28;20094;-80
2024/02/05 00:53:57;;;;;;;17.95;3.78;;;;;;;;;;5072955;28;20039;-80
2024/02/05 00:56:23;;;;;;;14.98;3.85;;;;;;;;;;5070643;28;20079;-80
2024/02/05 00:58:49;;;;;;;17.02;4.13;;;;;;;;;;5069763;28;20468;-80
2024/02/05 01:01:14;;;;;;;15.38;3.50;;;;;;;;;;5068916;28;20035;-80
2024/02/05 01:03:42;;;;;;;19.05;3.63;;;;;;;;;;5063116;28;20435;-81
2024/02/05 01:06:08;;;;;;;22.30;4.18;;;;;;;;;;5066698;28;20503;-81
2024/02/05 01:08:34;;;;;;;22.83;4.60;;;;;;;;;;5067699;28;20032;-80
2024/02/05 01:11:00;;;;;;;17.75;3.75;;;;;;;;;;5061095;28;20032;-80
2024/02/05 01:13:26;;;;;;;21.15;4.18;;;;;;;;;;5063072;28;20442;-80
2024/02/05 01:15:51;;;;;;;19.75;4.95;;;;;;;;;;5061873;28;20052;-81
2024/02/05 01:18:16;;;;;;;19.05;3.95;;;;;;;;;;5087353;28;20131;-80
2024/02/05 01:20:42;;;;;;;20.05;4.28;;;;;;;;;;5071736;28;20070;-80
2024/02/05 01:23:07;;;;;;;23.45;3.88;;;;;;;;;;5087815;28;20059;-81
2024/02/05 01:25:33;;;;;;;17.00;3.95;;;;;;;;;;5085979;28;20400;-80
2024/02/05 01:27:58;;;;;;;20.92;4.07;;;;;;;;;;5072989;28;20399;-81
2024/02/05 01:30:24;;;;;;;18.75;3.55;;;;;;;;;;5080794;28;20174;-81
2024/02/05 01:32:51;;;;;;;20.42;4.03;;;;;;;;;;5068653;28;20024;-81
2024/02/05 01:35:16;;;;;;;16.02;3.75;;;;;;;;;;5072384;28;20028;-80
2024/02/05 01:37:42;;;;;;;18.15;4.13;;;;;;;;;;5071164;28;20025;-80
2024/02/05 01:40:09;;;;;;;16.65;4.07;;;;;;;;;;5055931;28;20519;-81
2024/02/05 01:42:37;;;;;;;18.48;3.53;;;;;;;;;;5069535;28;20032;-80
2024/02/05 01:45:04;;;;;;;22.75;4.22;;;;;;;;;;5068907;28;20468;-81
2024/02/05 01:47:31;;;;;;;23.88;3.92;;;;;;;;;;5065968;28;20101;-81
2024/02/05 01:49:56;;;;;;;19.85;3.78;;;;;;;;;;5067776;28;20043;-80
2024/02/05 01:52:23;;;;;;;19.20;4.43;;;;;;;;;;5065324;28;20024;-80
2024/02/05 01:54:49;;;;;;;21.83;4.22;;;;;;;;;;5070379;28;20026;-80
2024/02/05 01:57:15;;;;;;;19.08;3.85;;;;;;;;;;5063953;28;20464;-80
2024/02/05 01:59:41;;;;;;;17.73;4.47;;;;;;;;;;5058946;28;20060;-81
2024/02/05 02:02:08;;;;;;;16.27;3.65;;;;;;;;;;5061422;28;20052;-80
2024/02/05 02:04:37;;;;;;;16.55;4.25;;;;;;;;;;5068488;22;20484;-93
2024/02/05 02:07:03;;;;;;;17.20;3.45;;;;;;;;;;5066055;28;20055;-93
2024/02/05 02:09:30;;;;;;;18.95;4.13;;;;;;;;;;5071648;28;20042;-91
2024/02/05 02:11:57;;;;;;;15.43;3.78;;;;;;;;;;5065441;28;20123;-94
2024/02/05 02:14:22;;;;;;;26.05;4.65;;;;;;;;;;5079934;28;20432;-91
2024/02/05 02:16:50;;;;;;;18.65;3.72;;;;;;;;;;5065408;28;20055;-91
2024/02/05 02:19:27;;;;;;;20.30;4.18;;;;;;;;;;5063888;28;20031;-94
2024/02/05 02:22:15;;;;;;;17.98;4.03;;;;;;;;;;5060128;28;20091;-93
2024/02/05 02:24:42;;;;;;;20.40;3.65;;;;;;;;;;5083783;28;20020;-90
2024/02/05 02:27:10;;;;;;;24.15;4.32;;;;;;;;;;5063130;28;20036;-90
2024/02/05 02:29:36;;;;;;;19.45;4.60;;;;;;;;;;5068957;28;20043;-92
2024/02/05 02:32:21;;;;;;;18.85;4.38;;;;;;;;;;5071915;28;20436;-91
2024/02/05 02:34:49;;;;;;;18.73;4.30;;;;;;;;;;5061485;28;20048;-94
2024/02/05 02:37:18;;;;;;;20.77;4.35;;;;;;;;;;5082014;28;20052;-92
2024/02/05 02:40:14;;;;;;;20.83;4.65;;;;;;;;;;5066749;28;20043;-94
2024/02/05 02:42:41;;;;;;;19.42;4.30;;;;;;;;;;5069147;28;20148;-93
2024/02/05 02:45:10;;;;;;;22.38;4.55;;;;;;;;;;5083181;28;20128;-92
2024/02/05 02:47:36;;;;;;;21.90;4.88;;;;;;;;;;5063270;28;20035;-90
2024/02/05 02:50:02;;;;;;;21.40;5.43;;;;;;;;;;5066400;28;20028;-92
2024/02/05 02:52:28;;;;;;;19.90;5.00;;;;;;;;;;5082414;28;20024;-94
2024/02/05 02:54:54;;;;;;;19.30;4.95;;;;;;;;;;5087261;28;20082;-91
2024/02/05 02:57:20;;;;;;;19.00;4.72;;;;;;;;;;5067553;28;20020;-90
2024/02/05 02:59:46;;;;;;;18.95;4.10;;;;;;;;;;5068802;28;20474;-93
2024/02/05 03:02:11;;;;;;;21.45;4.65;;;;;;;;;;5067670;28;20035;-91
2024/02/05 03:04:37;;;;;;;18.73;4.40;;;;;;;;;;5054025;28;20037;-93
2024/02/05 03:07:03;;;;;;;22.35;4.65;;;;;;;;;;5068896;28;20024;-91
2024/02/05 03:09:29;;;;;;;18.75;4.55;;;;;;;;;;5066745;28;20055;-88
2024/02/05 03:11:55;;;;;;;25.85;5.00;;;;;;;;;;5060031;28;20077;-88
2024/02/05 03:14:25;;;;;;;17.35;4.15;;;;;;;;;;5060500;28;20031;-86
2024/02/05 03:16:54;;;;;;;17.05;4.25;;;;;;;;;;5064458;28;20020;-88
2024/02/05 03:19:22;;;;;;;21.55;4.95;;;;;;;;;;5062534;28;20544;-88
2024/02/05 03:21:50;;;;;;;21.13;5.22;;;;;;;;;;5057063;28;20516;-86
2024/02/05 03:24:15;;;;;;;17.13;4.20;;;;;;;;;;5079595;28;20024;-86
2024/02/05 03:26:44;;;;;;;20.13;5.68;;;;;;;;;;5060170;28;20053;-86
2024/02/05 03:29:09;;;;;;;22.38;5.28;;;;;;;;;;5063557;28;20085;-85
2024/02/05 03:31:40;;;;;;;17.10;4.68;;;;;;;;;;5075858;28;20468;-86
2024/02/05 03:34:05;;;;;;;20.08;4.22;;;;;;;;;;5060654;28;20029;-86
2024/02/05 03:36:31;;;;;;;21.38;5.30;;;;;;;;;;5066241;28;20020;-88
2024/02/05 03:38:56;;;;;;;21.08;4.93;;;;;;;;;;5061456;28;20043;-85
2024/02/05 03:41:22;;;;;;;22.27;4.97;;;;;;;;;;5064913;28;20468;-85
2024/02/05 03:43:48;;;;;;;23.25;4.88;;;;;;;;;;5067888;28;20024;-85
2024/02/05 03:46:14;;;;;;;21.65;5.00;;;;;;;;;;5085053;28;20077;-85
2024/02/05 03:48:52;;;;;;;21.02;5.10;;;;;;;;;;5068605;28;20041;-87
2024/02/05 03:51:17;;;;;;;17.00;4.60;;;;;;;;;;5080691;28;20027;-88
2024/02/05 03:53:42;;;;;;;21.75;4.97;;;;;;;;;;5067308;28;20282;-89
2024/02/05 03:56:09;;;;;;;20.60;4.90;;;;;;;;;;5082946;28;20020;-85
2024/02/05 03:58:35;;;;;;;30.42;5.30;;;;;;;;;;5081668;28;20047;-86
2024/02/05 04:01:00;;;;;;;21.63;4.55;;;;;;;;;;5065692;28;20059;-85
2024/02/05 04:03:26;;;;;;;21.35;4.20;;;;;;;;;;5050405;28;20082;-85
2024/02/05 04:05:52;;;;;;;21.17;4.55;;;;;;;;;;5062894;28;20551;-86
2024/02/05 04:08:17;;;;;;;16.73;4.60;;;;;;;;;;5072085;28;20055;-85
2024/02/05 04:10:43;;;;;;;19.35;4.72;;;;;;;;;;5084160;28;20031;-86
2024/02/05 04:13:14;;;;;;;19.42;5.60;;;;;;;;;;5065939;28;20024;-85
2024/02/05 04:15:40;;;;;;;26.27;4.47;;;;;;;;;;5064328;28;20052;-85
2024/02/05 04:18:12;;;;;;;19.50;5.15;;;;;;;;;;5078938;28;20562;-86
2024/02/05 04:20:37;;;;;;;22.07;5.07;;;;;;;;;;5085882;28;21034;-89
2024/02/05 04:23:05;;;;;;;19.50;4.35;;;;;;;;;;5065286;28;20028;-88
2024/02/05 04:25:31;;;;;;;21.70;5.30;;;;;;;;;;5066615;28;20028;-90
2024/02/05 04:27:56;;;;;;;15.30;4.53;;;;;;;;;;5066719;28;20078;-89
2024/02/05 04:30:29;;;;;;;23.70;5.75;;;;;;;;;;5067174;28;20024;-92
2024/02/05 04:32:58;;;;;;;18.30;4.13;;;;;;;;;;5069535;28;20422;-90
2024/02/05 04:35:24;;;;;;;19.25;4.63;;;;;;;;;;5067118;28;20085;-91
2024/02/05 04:37:50;;;;;;;19.98;4.78;;;;;;;;;;5067228;28;20021;-90
2024/02/05 04:40:15;;;;;;;17.42;5.00;;;;;;;;;;5074004;28;20024;-90
2024/02/05 04:42:41;;;;;;;24.60;5.32;;;;;;;;;;5071324;28;20043;-92
2024/02/05 04:45:08;;;;;;;20.27;5.07;;;;;;;;;;5069766;28;20055;-90
2024/02/05 04:47:36;;;;;;;18.75;4.75;;;;;;;;;;5069042;28;20025;-90
2024/02/05 04:50:01;;;;;;;19.33;5.70;;;;;;;;;;5064527;28;20031;-89
2024/02/05 04:52:27;;;;;;;15.63;5.15;;;;;;;;;;5084181;28;20475;-90
2024/02/05 04:54:53;;;;;;;28.50;5.93;;;;;;;;;;5078550;28;20035;-90
2024/02/05 04:57:18;;;;;;;23.13;6.07;;;;;;;;;;5063489;28;20070;-89
2024/02/05 04:59:44;;;;;;;18.02;5.32;;;;;;;;;;5076077;28;20471;-91
2024/02/05 05:02:09;;;;;;;15.65;4.97;;;;;;;;;;5085127;28;20492;-90
2024/02/05 05:04:36;;;;;;;23.00;5.97;;;;;;;;;;5062841;28;20161;-90
2024/02/05 05:07:02;;;;;;;16.63;5.82;;;;;;;;;;5070020;28;20477;-91
2024/02/05 05:09:28;;;;;;;16.98;5.13;;;;;;;;;;5086518;28;20119;-89
2024/02/05 05:11:54;;;;;;;24.70;5.70;;;;;;;;;;5084975;28;20060;-90
2024/02/05 05:14:19;;;;;;;20.73;5.32;;;;;;;;;;5066598;28;20095;-91
2024/02/05 05:16:45;;;;;;;17.15;4.60;;;;;;;;;;5066554;28;20070;-90
2024/02/05 05:19:10;;;;;;;13.23;4.80;;;;;;;;;;5069951;28;20031;-88
2024/02/05 05:21:36;;;;;;;19.65;5.20;;;;;;;;;;5070091;28;20024;-91
2024/02/05 05:24:01;;;;;;;18.77;5.18;;;;;;;;;;5066687;28;20392;-90
2024/02/05 05:26:27;;;;;;;24.50;5.22;;;;;;;;;;5082246;28;20028;-91
2024/02/05 05:28:52;;;;;;;19.27;5.32;;;;;;;;;;5060404;28;20127;-91
2024/02/05 05:31:21;;;;;;;22.95;5.80;;;;;;;;;;5066933;28;20194;-91
2024/02/05 05:33:47;;;;;;;17.40;5.18;;;;;;;;;;5082251;28;20132;-91
2024/02/05 05:36:13;;;;;;;17.67;5.00;;;;;;;;;;5066361;28;20526;-91
2024/02/05 05:38:38;;;;;;;21.08;5.60;;;;;;;;;;5066631;28;20024;-92
2024/02/05 05:41:04;;;;;;;13.40;4.63;;;;;;;;;;5065891;28;20088;-92
2024/02/05 05:43:30;;;;;;;22.92;5.15;;;;;;;;;;5068706;28;20032;-92
2024/02/05 05:45:56;;;;;;;14.73;4.75;;;;;;;;;;5068075;28;20031;-92
2024/02/05 05:48:24;;;;;;;19.85;5.22;;;;;;;;;;5070175;28;20388;-91
2024/02/05 05:50:51;;;;;;;22.73;5.43;;;;;;;;;;5066056;28;20028;-91
2024/02/05 05:53:18;;;;;;;15.30;4.78;;;;;;;;;;5080067;28;20043;-91
2024/02/05 05:55:49;;;;;;;21.55;4.60;;;;;;;;;;5086859;28;20020;-91
2024/02/05 05:58:15;;;;;;;25.67;5.18;;;;;;;;;;5083128;28;20019;-90
2024/02/05 06:00:40;;;;;;;18.25;4.25;;;;;;;;;;5061777;28;20500;-92
2024/02/05 06:03:08;;;;;;;19.45;4.15;;;;;;;;;;5062244;28;20032;-91
2024/02/05 06:05:34;;;;;;;22.08;4.97;;;;;;;;;;5061266;28;20397;-91
2024/02/05 06:08:00;;;;;;;24.42;5.25;;;;;;;;;;5068811;28;20035;-89
2024/02/05 06:10:26;;;;;;;24.90;4.95;;;;;;;;;;5062932;28;20546;-90
2024/02/05 06:12:52;;;;;;;17.52;5.10;;;;;;;;;;5065866;28;20054;-89
2024/02/05 06:15:21;;;;;;;22.73;4.95;;;;;;;;;;5082212;28;20040;-93
2024/02/05 06:17:47;;;;;;;24.63;5.05;;;;;;;;;;5084500;28;20030;-92
2024/02/05 06:20:12;;;;;;;22.35;5.00;;;;;;;;;;5065291;28;20532;-91
2024/02/05 06:22:38;;;;;;;24.75;4.93;;;;;;;;;;5069834;28;20496;-90
2024/02/05 06:25:05;;;;;;;21.15;4.70;;;;;;;;;;5068991;28;20039;-90
2024/02/05 06:27:31;;;;;;;24.42;5.75;;;;;;;;;;5071412;28;20032;-93
2024/02/05 06:29:56;;;;;;;23.10;5.72;;;;;;;;;;5086407;28;20404;-93
2024/02/05 06:32:22;;;;;;;23.38;5.90;;;;;;;;;;5086337;28;20127;-90
2024/02/05 06:34:50;;;;;;;17.35;5.07;;;;;;;;;;5066132;28;20020;-91
2024/02/05 06:37:16;;;;;;;16.20;4.93;;;;;;;;;;5063996;28;20032;-92
2024/02/05 06:39:41;;;;;;;19.17;5.05;;;;;;;;;;5065206;28;20028;-91
2024/02/05 06:42:07;;;;;;;19.67;5.95;;;;;;;;;;5065780;28;20484;-93
2024/02/05 06:44:33;;;;;;;18.45;4.95;;;;;;;;;;5082617;28;20031;-91
2024/02/05 06:47:03;;;;;;;20.95;5.03;;;;;;;;;;5068696;28;20058;-92
2024/02/05 06:49:28;;;;;;;15.20;4.70;;;;;;;;;;5086131;28;20031;-92
2024/02/05 06:51:54;;;;;;;17.13;5.30;;;;;;;;;;5064908;28;20172;-91
2024/02/05 06:54:25;;;;;;;16.35;5.40;;;;;;;;;;5067168;28;20031;-90
2024/02/05 06:56:51;;;;;;;20.23;5.40;;;;;;;;;;5084529;28;20028;-88
2024/02/05 06:59:18;;;;;;;22.95;5.30;;;;;;;;;;5062845;28;20031;-86
2024/02/05 07:01:46;;;;;;;17.20;6.20;;;;;;;;;;5065698;28;20479;-90
2024/02/05 07:04:12;;;;;;;24.23;6.70;;;;;;;;;;5065431;28;20028;-93
2024/02/05 07:06:38;;;;;;;20.13;6.38;;;;;;;;;;5079670;28;20039;-92
2024/02/05 07:09:06;;;;;;;17.50;6.22;;;;;;;;;;5080043;28;20073;-88
2024/02/05 07:11:31;;;;;;;19.85;5.95;;;;;;;;;;5082107;28;20024;-88
2024/02/05 07:14:01;;;;;;;17.38;5.75;;;;;;;;;;5080059;28;20081;-87
2024/02/05 07:16:29;;;;;;;23.60;6.25;;;;;;;;;;5081525;28;20066;-89
2024/02/05 07:18:54;;;;;;;22.33;6.45;;;;;;;;;;5062723;28;20040;-89
2024/02/05 07:21:20;;;;;;;17.88;6.00;;;;;;;;;;5064461;28;20045;-88
2024/02/05 07:23:48;;;;;;;20.20;6.47;;;;;;;;;;5063955;28;20031;-87
2024/02/05 07:26:16;;;;;;;23.67;6.38;;;;;;;;;;5067018;28;20035;-87
2024/02/05 07:28:44;;;;;;;18.02;6.40;;;;;;;;;;5065093;28;20029;-88
2024/02/05 07:31:10;;;;;;;21.60;6.72;;;;;;;;;;5080706;28;20028;-87
2024/02/05 07:33:36;;;;;;;21.23;6.60;;;;;;;;;;5078896;28;20031;-88
2024/02/05 07:36:05;;;;;;;19.75;6.50;;;;;;;;;;5065325;28;20471;-87
2024/02/05 07:38:30;;;;;;;18.77;6.80;;;;;;;;;;5087025;28;20024;-87
2024/02/05 07:40:59;;;;;;;18.33;6.78;;;;;;;;;;5082821;28;20078;-85
2024/02/05 07:43:24;;;;;;;22.08;6.50;;;;;;;;;;5066191;28;20028;-86
2024/02/05 07:45:50;;;;;;;19.58;6.35;;;;;;;;;;5068220;28;20040;-86
2024/02/05 07:48:19;;;;;;;19.35;6.53;;;;;;;;;;5061377;28;20025;-87
2024/02/05 07:51:04;;;;;;;21.27;6.80;;;;;;;;;;5078491;28;20456;-87
2024/02/05 07:53:41;;;;;;;25.55;7.05;;;;;;;;;;5064119;28;20039;-87
2024/02/05 07:56:19;;;;;;;;;;;;;;;;;;;;;
2024/02/05 07:58:44;;;;;;;21.20;6.90;;;;;;;;;;5081704;28;20493;-87
2024/02/05 08:01:10;;;;;;;25.80;7.65;;;;;;;;;;5074054;28;20115;-87
2024/02/05 08:03:36;;;;;;;27.52;7.65;;;;;;;;;;5072945;28;20055;-88
2024/02/05 08:06:07;;;;;;;24.20;8.10;;;;;;;;;;5079525;28;20060;-89
2024/02/05 08:08:38;;;;;;;17.55;7.55;;;;;;;;;;5082401;28;20453;-87
2024/02/05 08:11:03;;;;;;;17.85;8.00;;;;;;;;;;5084410;28;20024;-87
2024/02/05 08:13:32;;;;;;;23.70;8.85;;;;;;;;;;5078378;28;20394;-87
2024/02/05 08:16:00;;;;;;;26.08;8.82;;;;;;;;;;5063015;28;20030;-87
2024/02/05 08:18:29;;;;;;;17.90;7.95;;;;;;;;;;5069422;28;20039;-87
2024/02/05 08:20:57;;;;;;;23.35;8.32;;;;;;;;;;5078078;28;20524;-87
2024/02/05 08:23:22;;;;;;;19.58;8.75;;;;;;;;;;5063361;28;20485;-88
2024/02/05 08:25:48;;;;;;;25.40;8.77;;;;;;;;;;5074189;28;20035;-87
2024/02/05 08:28:16;;;;;;;24.38;7.82;;;;;;;;;;5083282;28;20081;-88
2024/02/05 08:30:42;;;;;;;21.52;7.72;;;;;;;;;;5068942;28;20048;-93
2024/02/05 08:33:17;;;;;;;22.50;7.65;;;;;;;;;;5083883;28;20074;-93
2024/02/05 08:35:45;;;;;;;20.80;7.20;;;;;;;;;;5089965;28;20020;-89
2024/02/05 08:38:13;;;;;;;20.80;7.60;;;;;;;;;;5085736;28;20123;-91
2024/02/05 08:40:39;;;;;;;25.50;7.78;;;;;;;;;;5079218;28;20377;-87
2024/02/05 08:43:05;;;;;;;27.20;7.50;;;;;;;;;;5084987;28;20028;-90
2024/02/05 08:45:31;;;;;;;22.50;6.90;;;;;;;;;;5094083;28;20020;-91
2024/02/05 08:48:00;;;;;;;17.83;6.20;;;;;;;;;;5070274;28;20029;-91
2024/02/05 08:50:33;;;;;;;17.25;6.25;;;;;;;;;;5064139;28;20046;-90
2024/02/05 08:53:04;;;;;;;24.95;6.38;;;;;;;;;;5081158;28;20097;-92
2024/02/05 08:55:38;;;;;;;20.08;6.95;;;;;;;;;;5076810;28;20042;-91
2024/02/05 08:58:09;;;;;;;22.60;5.10;;;;;;;;;;5093149;28;20024;-92
2024/02/05 09:00:40;;;;;;;19.92;5.38;;;;;;;;;;5076275;28;20026;-91
2024/02/05 09:03:07;;;;;;;19.63;5.93;;;;;;;;;;5067497;28;20078;-91
2024/02/05 09:05:43;;;;;;;22.42;5.45;;;;;;;;;;5073087;28;20377;-91
2024/02/05 09:08:09;;;;;;;19.63;5.80;;;;;;;;;;5070042;28;20424;-89
2024/02/05 09:10:40;;;;;;;17.63;6.13;;;;;;;;;;5058371;28;20123;-89
2024/02/05 09:13:11;;;;;;;18.27;5.50;;;;;;;;;;5084506;28;20074;-90
2024/02/05 09:15:42;;;;;;;20.73;5.70;;;;;;;;;;5069377;28;20276;-90
2024/02/05 09:18:09;;;;;;;20.90;5.15;;;;;;;;;;5072866;28;20348;-91
2024/02/05 09:20:38;;;;;;;19.55;4.93;;;;;;;;;;5071283;28;20034;-90
2024/02/05 09:23:04;;;;;;;21.85;4.57;;;;;;;;;;5085138;28;20115;-90
2024/02/05 09:25:32;;;;;;;18.48;5.38;;;;;;;;;;5069731;28;20101;-91
2024/02/05 09:27:58;;;;;;;21.27;4.75;;;;;;;;;;5072212;28;20040;-91
2024/02/05 09:30:23;;;;;;;21.70;5.10;;;;;;;;;;5083627;28;20043;-91
2024/02/05 09:32:49;;;;;;;23.75;5.32;;;;;;;;;;5069247;28;20472;-90
2024/02/05 09:35:18;;;;;;;17.92;5.32;;;;;;;;;;5060700;28;20027;-90
2024/02/05 09:37:47;;;;;;;19.65;5.30;;;;;;;;;;5068145;28;20020;-91
2024/02/05 09:40:12;;;;;;;22.15;7.05;;;;;;;;;;5069285;28;20043;-90
2024/02/05 09:42:43;;;;;;;21.60;8.05;;;;;;;;;;5056849;28;20028;-91
2024/02/05 09:45:12;;;;;;;20.83;8.38;;;;;;;;;;5087598;28;20039;-91
2024/02/05 09:47:40;;;;;;;20.35;8.65;;;;;;;;;;5067165;28;20898;-90
2024/02/05 09:50:11;;;;;;;19.45;7.40;;;;;;;;;;5081157;28;20078;-87
2024/02/05 09:52:40;;;;;;;21.60;7.22;;;;;;;;;;5065784;28;20036;-88
2024/02/05 09:55:21;;;;;;;24.27;7.75;;;;;;;;;;5056927;28;20027;-90
2024/02/05 09:58:25;;;;;;;17.58;6.32;;;;;;;;;;5061224;28;20035;-90
2024/02/05 10:00:53;;;;;;;23.30;7.75;;;;;;;;;;5072765;28;20040;-92
2024/02/05 10:03:19;;;;;;;25.40;9.25;;;;;;;;;;5066727;28;20503;-89
2024/02/05 10:05:49;;;;;;;17.88;8.88;;;;;;;;;;5078364;28;20039;-90
2024/02/05 10:08:16;;;;;;;20.10;7.40;;;;;;;;;;5069060;28;20043;-90
2024/02/05 10:10:44;;;;;;;22.83;6.30;;;;;;;;;;5054137;28;20116;-90
2024/02/05 10:13:11;;;;;;;22.33;6.18;;;;;;;;;;5075244;28;20032;-91
2024/02/05 10:15:39;;;;;;;19.60;6.43;;;;;;;;;;5073570;28;20025;-89
2024/02/05 10:18:13;;;;;;;20.88;6.97;;;;;;;;;;5082538;28;20028;-90
2024/02/05 10:20:38;;;;;;;21.15;8.63;;;;;;;;;;5076822;28;20239;-89
2024/02/05 10:23:04;;;;;;;32.55;11.30;;;;;;;;;;5060753;28;20080;-88
2024/02/05 10:25:33;;;;;;;25.13;11.02;;;;;;;;;;5079264;28;20047;-89
2024/02/05 10:28:10;;;;;;;28.83;11.57;;;;;;;;;;5061861;28;20032;-89
2024/02/05 10:30:35;;;;;;;27.27;11.02;;;;;;;;;;5065044;28;20035;-89
2024/02/05 10:33:03;;;;;;;27.80;11.85;;;;;;;;;;5060430;28;20027;-90
2024/02/05 10:35:29;;;;;;;23.48;10.75;;;;;;;;;;5063280;28;20376;-90
2024/02/05 10:38:10;;;;;;;25.08;11.38;;;;;;;;;;5058848;28;20119;-90
2024/02/05 10:40:37;;;;;;;30.13;11.15;;;;;;;;;;5074556;28;20051;-89
2024/02/05 10:43:05;;;;;;;29.75;11.52;;;;;;;;;;5061089;28;20435;-90
2024/02/05 10:45:44;;;;;;;24.02;10.40;;;;;;;;;;5079081;28;20047;-88
2024/02/05 10:48:28;;;;;;;21.77;10.27;;;;;;;;;;5074044;28;20082;-89
2024/02/05 10:50:54;;;;;;;23.80;9.27;;;;;;;;;;5058817;28;20028;-89
2024/02/05 10:53:21;;;;;;;19.58;8.95;;;;;;;;;;5077790;28;20106;-89
2024/02/05 10:55:49;;;;;;;20.70;9.00;;;;;;;;;;5079053;28;20036;-90
2024/02/05 10:58:19;;;;;;;22.80;9.50;;;;;;;;;;5085012;28;20036;-89
2024/02/05 11:00:46;;;;;;;28.48;9.45;;;;;;;;;;5062419;28;20566;-87
2024/02/05 11:03:28;;;;;;;21.42;9.15;;;;;;;;;;5064142;28;20060;-87
2024/02/05 11:05:58;;;;;;;21.58;9.90;;;;;;;;;;5071180;28;20394;-88
2024/02/05 11:08:31;;;;;;;20.75;9.02;;;;;;;;;;5056045;28;20802;-88
2024/02/05 11:10:59;;;;;;;19.13;9.18;;;;;;;;;;5064140;28;20040;-87
2024/02/05 11:13:47;;;;;;;26.45;9.52;;;;;;;;;;5066427;28;20225;-88
2024/02/05 11:16:14;;;;;;;21.90;9.30;;;;;;;;;;5065024;28;20032;-87
2024/02/05 11:18:48;;;;;;;22.23;9.90;;;;;;;;;;5057764;28;20035;-88
2024/02/05 11:21:20;;;;;;;22.20;8.77;;;;;;;;;;5074682;28;20059;-88
2024/02/05 11:23:47;;;;;;;21.35;7.90;;;;;;;;;;5062421;28;20369;-89
2024/02/05 11:26:13;;;;;;;19.95;8.68;;;;;;;;;;5067488;28;20028;-87
2024/02/05 11:28:39;;;;;;;24.77;8.32;;;;;;;;;;5057578;28;20509;-88
2024/02/05 11:31:11;;;;;;;20.67;8.73;;;;;;;;;;5075832;28;20153;-89
2024/02/05 11:33:38;;;;;;;21.67;7.73;;;;;;;;;;5073433;28;20028;-89
2024/02/05 11:36:09;;;;;;;17.98;7.47;;;;;;;;;;5058899;28;20024;-88
2024/02/05 11:38:38;;;;;;;19.83;7.53;;;;;;;;;;5069457;28;20032;-87
2024/02/05 11:41:04;;;;;;;18.95;7.13;;;;;;;;;;5062649;28;20032;-88
2024/02/05 11:43:39;;;;;;;27.40;8.45;;;;;;;;;;5078068;28;20036;-87
2024/02/05 11:46:06;;;;;;;16.70;7.78;;;;;;;;;;5050601;28;20478;-88
2024/02/05 11:48:36;;;;;;;22.20;8.00;;;;;;;;;;5065375;28;20481;-88
2024/02/05 11:51:01;;;;;;;18.17;7.30;;;;;;;;;;5061548;28;20084;-88
2024/02/05 11:53:31;;;;;;;19.38;7.72;;;;;;;;;;5070511;28;20151;-86
2024/02/05 11:55:56;;;;;;;18.42;6.93;;;;;;;;;;5074300;28;20489;-86
2024/02/05 11:58:22;;;;;;;20.75;7.10;;;;;;;;;;5083852;28;20051;-89
2024/02/05 12:00:47;;;;;;;15.50;6.70;;;;;;;;;;5075823;28;20035;-89
2024/02/05 12:03:14;;;;;;;20.08;7.05;;;;;;;;;;5071540;28;20024;-87
2024/02/05 12:05:41;;;;;;;19.48;6.57;;;;;;;;;;5058193;28;20050;-89
2024/02/05 12:08:08;;;;;;;18.58;6.72;;;;;;;;;;5065824;28;20067;-87
2024/02/05 12:10:34;;;;;;;18.50;7.53;;;;;;;;;;5069443;28;20020;-88
2024/02/05 12:13:03;;;;;;;17.30;6.53;;;;;;;;;;5066906;28;20027;-89
2024/02/05 12:15:33;;;;;;;18.27;6.55;;;;;;;;;;5072519;28;20066;-91
2024/02/05 12:18:06;;;;;;;17.40;6.50;;;;;;;;;;5063241;28;20593;-91
2024/02/05 12:20:34;;;;;;;21.03;6.50;;;;;;;;;;5064834;28;20032;-90
2024/02/05 12:23:04;;;;;;;19.73;7.00;;;;;;;;;;5064827;28;20627;-91
2024/02/05 12:25:31;;;;;;;21.02;7.22;;;;;;;;;;5050859;28;20046;-90
2024/02/05 12:27:56;;;;;;;17.08;5.82;;;;;;;;;;5062968;28;20035;-90
2024/02/05 12:30:22;;;;;;;21.98;6.72;;;;;;;;;;5076164;28;20110;-90
2024/02/05 12:32:55;;;;;;;20.77;6.22;;;;;;;;;;5063816;28;20034;-90
2024/02/05 12:35:21;;;;;;;;;;;;;;;;;;5074638;28;20027;-90
2024/02/05 12:37:51;;;;;;;18.10;5.05;;;;;;;;;;5064288;28;19920;-89
2024/02/05 12:40:18;;;;;;;20.70;6.13;;;;;;;;;;5067884;28;20024;-89
2024/02/05 12:42:47;;;;;;;24.13;6.22;;;;;;;;;;5067197;28;20111;-91
2024/02/05 12:45:13;;;;;;;26.58;7.07;;;;;;;;;;5056328;28;20500;-90
2024/02/05 12:47:43;;;;;;;17.45;6.22;;;;;;;;;;5074560;28;20028;-90
2024/02/05 12:50:09;;;;;;;19.98;5.88;;;;;;;;;;5055630;28;20460;-88
2024/02/05 12:52:37;;;;;;;15.00;6.05;;;;;;;;;;5068352;28;20059;-91
2024/02/05 12:55:08;;;;;;;18.33;5.43;;;;;;;;;;5064461;28;20027;-90
2024/02/05 12:57:34;;;;;;;22.75;6.28;;;;;;;;;;5079635;28;20032;-89
2024/02/05 13:00:07;;;;;;;17.52;6.20;;;;;;;;;;5058603;28;20278;-89
2024/02/05 13:02:36;;;;;;;18.65;6.43;;;;;;;;;;5080701;28;20344;-90
2024/02/05 13:05:04;;;;;;;22.55;6.40;;;;;;;;;;5069870;28;20039;-90
2024/02/05 13:07:31;;;;;;;20.40;6.80;;;;;;;;;;5055768;28;20030;-89
2024/02/05 13:10:03;;;;;;;25.50;7.13;;;;;;;;;;5077607;28;20036;-89
2024/02/05 13:12:33;;;;;;;20.83;7.30;;;;;;;;;;5081482;28;20024;-90
2024/02/05 13:14:59;;;;;;;23.70;6.50;;;;;;;;;;5066748;28;20544;-91
2024/02/05 13:17:28;;;;;;;18.70;6.22;;;;;;;;;;5064808;28;20028;-89
2024/02/05 13:19:54;;;;;;;21.17;6.65;;;;;;;;;;5042352;28;20543;-89
2024/02/05 13:22:22;;;;;;;20.10;6.70;;;;;;;;;;5062277;28;20035;-88
2024/02/05 13:24:47;;;;;;;19.48;6.50;;;;;;;;;;5082523;28;20020;-89
2024/02/05 13:27:14;;;;;;;21.42;6.75;;;;;;;;;;5074176;28;20507;-89
2024/02/05 13:29:40;;;;;;;22.52;5.93;;;;;;;;;;5056333;28;20038;-89
2024/02/05 13:32:06;;;;;;;19.63;6.50;;;;;;;;;;5073409;28;20040;-90
2024/02/05 13:34:34;;;;;;;20.30;5.75;;;;;;;;;;5067179;28;20054;-89
2024/02/05 13:37:00;;;;;;;17.70;6.00;;;;;;;;;;5066981;28;20473;-89
2024/02/05 13:40:29;;;;;;;20.63;6.03;;;;;;;;;;5061482;28;20020;-89
2024/02/05 13:42:54;;;;;;;23.25;5.70;;;;;;;;;;5071121;28;20527;-89
2024/02/05 13:45:20;;;;;;;21.65;6.43;;;;;;;;;;5081481;28;20051;-89
2024/02/05 13:47:47;;;;;;;20.17;6.25;;;;;;;;;;5064223;28;20115;-88
2024/02/05 13:50:13;;;;;;;19.02;6.28;;;;;;;;;;5074655;28;20516;-89
2024/02/05 13:52:41;;;;;;;18.27;6.13;;;;;;;;;;5066503;28;20032;-89
2024/02/05 13:55:15;;;;;;;15.75;6.10;;;;;;;;;;5082779;28;20461;-89
2024/02/05 13:57:44;;;;;;;24.52;6.65;;;;;;;;;;5076575;28;20481;-89
2024/02/05 14:00:10;;;;;;;17.85;5.72;;;;;;;;;;5058305;28;20507;-89
2024/02/05 14:02:39;;;;;;;21.83;6.75;;;;;;;;;;5078174;28;20027;-90
2024/02/05 14:05:10;;;;;;;14.63;5.80;;;;;;;;;;5078883;28;20448;-88
2024/02/05 14:07:40;;;;;;;16.75;5.90;;;;;;;;;;5081527;28;20070;-89
2024/02/05 14:10:12;;;;;;;20.45;7.38;;;;;;;;;;5059777;28;20036;-88
2024/02/05 14:12:38;;;;;;;20.75;6.20;;;;;;;;;;5055795;28;20036;-89
2024/02/05 14:15:04;;;;;;;13.68;5.30;;;;;;;;;;5072513;28;20028;-89
2024/02/05 14:17:39;;;;;;;18.33;5.60;;;;;;;;;;5061372;28;20488;-88
2024/02/05 14:20:10;;;;;;;13.93;5.20;;;;;;;;;;5074413;28;20028;-90
2024/02/05 14:22:36;;;;;;;15.15;5.35;;;;;;;;;;5063018;28;20070;-89
2024/02/05 14:25:12;;;;;;;18.08;5.03;;;;;;;;;;5058139;28;20097;-89
2024/02/05 14:27:45;;;;;;;14.77;5.30;;;;;;;;;;5065735;28;20966;-88
2024/02/05 14:30:11;;;;;;;15.85;4.75;;;;;;;;;;5066419;28;20059;-89
2024/02/05 14:32:37;;;;;;;12.95;4.50;;;;;;;;;;5072355;28;20052;-88
2024/02/05 14:35:03;;;;;;;17.05;5.13;;;;;;;;;;5052987;28;20089;-90